createdAt,value
2019-01-19T00:02:46.097Z,-0.64
2019-01-19T00:08:27.207Z,-0.62
2019-01-19T00:13:53.256Z,-0.65
2019-01-19T00:19:40.614Z,-0.69
2019-01-19T00:25:38.182Z,-0.63
2019-01-19T00:31:00.229Z,-0.64
2019-01-19T00:36:28.173Z,-0.68
2019-01-19T00:41:56.414Z,-0.65
2019-01-19T00:47:18.703Z,-0.87
2019-01-19T00:52:45.865Z,-0.84
2019-01-19T00:58:33.044Z,-0.77
2019-01-19T01:04:02.094Z,-0.89
2019-01-19T01:09:48.809Z,-0.74
2019-01-19T01:15:42.212Z,-1.00
2019-01-19T01:20:58.278Z,-0.90
2019-01-19T01:26:34.240Z,-0.87
2019-01-19T01:32:07.895Z,-0.93
2019-01-19T01:37:27.605Z,-1.08
2019-01-19T01:43:15.636Z,-1.11
2019-01-19T01:48:56.363Z,-1.09
2019-01-19T01:54:41.606Z,-1.15
2019-01-19T02:00:15.585Z,-1.10
2019-01-19T02:06:04.623Z,-1.02
2019-01-19T02:11:56.068Z,-1.09
2019-01-19T02:17:38.886Z,-1.21
2019-01-19T02:23:23.687Z,-1.13
2019-01-19T02:28:55.187Z,-1.17
2019-01-19T02:34:31.913Z,-1.23
2019-01-19T02:40:10.116Z,-1.36
2019-01-19T02:45:54.340Z,-1.27
2019-01-19T02:51:15.946Z,-1.22
2019-01-19T02:56:59.274Z,-1.11
2019-01-19T03:02:33.257Z,-1.10
2019-01-19T03:08:08.423Z,-1.10
2019-01-19T03:13:45.388Z,-1.13
2019-01-19T03:19:27.304Z,-1.14
2019-01-19T03:24:55.533Z,-1.08
2019-01-19T03:30:30.284Z,-1.05
2019-01-19T03:36:26.149Z,-1.04
2019-01-19T03:42:03.550Z,-1.08
2019-01-19T03:47:40.138Z,-1.08
2019-01-19T03:53:08.997Z,-1.18
2019-01-19T03:58:32.269Z,-1.13
2019-01-19T04:04:00.166Z,-1.07
2019-01-19T04:09:32.588Z,-1.06
2019-01-19T04:15:35.976Z,-1.05
2019-01-19T04:21:14.502Z,-1.09
2019-01-19T04:26:33.376Z,-1.21
2019-01-19T04:31:47.532Z,-1.15
2019-01-19T04:36:55.749Z,-1.15
2019-01-19T04:42:05.449Z,-1.16
2019-01-19T04:47:12.727Z,-1.10
2019-01-19T04:52:24.102Z,-1.30
2019-01-19T04:57:33.011Z,-1.29
2019-01-19T05:02:42.790Z,-1.35
2019-01-19T05:07:54.279Z,-1.31
2019-01-19T05:13:02.322Z,-1.28
2019-01-19T05:18:13.377Z,-1.39
2019-01-19T05:25:24.438Z,-1.38
2019-01-19T05:30:33.784Z,-1.22
2019-01-19T05:35:44.496Z,-1.22
2019-01-19T05:46:25.532Z,-1.48
2019-01-19T05:51:35.594Z,-1.55
2019-01-19T05:56:47.577Z,-1.55
2019-01-19T06:02:01.867Z,-1.60
2019-01-19T06:07:12.583Z,-1.68
2019-01-19T06:12:20.214Z,-1.68
2019-01-19T06:17:31.415Z,-1.61
2019-01-19T06:22:44.933Z,-1.66
2019-01-19T06:27:59.240Z,-1.77
2019-01-19T06:33:08.340Z,-1.66
2019-01-19T06:38:16.747Z,-1.59
2019-01-19T06:43:27.416Z,-1.64
2019-01-19T06:48:35.763Z,-1.64
2019-01-19T06:53:43.501Z,-1.76
2019-01-19T06:58:55.974Z,-1.69
2019-01-19T07:04:06.117Z,-1.69
2019-01-19T07:09:13.869Z,-1.69
2019-01-19T07:14:23.151Z,-1.67
2019-01-19T07:19:35.337Z,-1.72
2019-01-19T07:24:42.058Z,-1.69
2019-01-19T07:29:52.245Z,-1.71
2019-01-19T07:34:59.242Z,-1.68
2019-01-19T07:40:09.340Z,-1.56
2019-01-19T07:45:15.023Z,-1.64
2019-01-19T07:50:23.454Z,-1.56
2019-01-19T07:55:35.942Z,-1.51
2019-01-19T08:00:42.866Z,-1.42
2019-01-19T08:05:54.469Z,-1.39
2019-01-19T08:11:04.838Z,-1.39
2019-01-19T08:16:11.976Z,-1.37
2019-01-19T08:21:20.870Z,-1.34
2019-01-19T08:26:30.414Z,-1.30
2019-01-19T08:31:41.190Z,-1.27
2019-01-19T08:36:51.845Z,-1.22
2019-01-19T08:42:03.397Z,-1.08
2019-01-19T08:47:11.792Z,-1.10
2019-01-19T08:52:24.287Z,-0.85
2019-01-19T08:57:32.649Z,-0.60
2019-01-19T09:02:41.287Z,-0.26
2019-01-19T09:07:51.594Z,-0.18
2019-01-19T09:13:03.149Z,-0.02
2019-01-19T09:18:12.004Z,0.14
2019-01-19T09:23:28.038Z,0.15
2019-01-19T09:28:39.080Z,0.30
2019-01-19T09:33:54.467Z,0.74
2019-01-19T09:39:01.028Z,1.53
2019-01-19T09:44:09.885Z,1.67
2019-01-19T09:49:18.321Z,2.04
2019-01-19T09:54:27.370Z,2.13
2019-01-19T09:59:36.205Z,1.94
2019-01-19T10:04:46.488Z,2.19
2019-01-19T10:09:54.084Z,2.43
2019-01-19T10:15:02.307Z,3.40
2019-01-19T10:20:12.843Z,3.88
2019-01-19T10:25:25.352Z,3.82
2019-01-19T10:30:36.195Z,3.72
2019-01-19T10:35:46.691Z,4.21
2019-01-19T10:40:56.028Z,4.51
2019-01-19T10:46:07.800Z,4.44
2019-01-19T10:51:18.029Z,4.32
2019-01-19T10:56:26.913Z,3.67
2019-01-19T11:01:35.835Z,3.97
2019-01-19T11:06:43.139Z,4.22
2019-01-19T11:11:50.424Z,3.91
2019-01-19T11:17:02.126Z,4.36
2019-01-19T11:22:12.067Z,4.87
2019-01-19T11:27:18.815Z,5.28
2019-01-19T11:32:29.117Z,5.61
2019-01-19T11:37:37.605Z,6.27
2019-01-19T11:42:47.429Z,7.07
2019-01-19T11:47:59.908Z,7.30
2019-01-19T11:53:11.010Z,7.14
2019-01-19T11:58:19.875Z,7.96
2019-01-19T12:03:31.490Z,7.73
2019-01-19T12:08:40.429Z,7.08
2019-01-19T12:13:53.321Z,7.46
2019-01-19T12:19:00.566Z,7.40
2019-01-19T12:24:14.785Z,7.27
2019-01-19T12:29:27.857Z,6.74
2019-01-19T12:34:35.763Z,6.68
2019-01-19T12:39:44.879Z,6.50
2019-01-19T12:44:51.636Z,6.48
2019-01-19T12:49:59.836Z,7.58
2019-01-19T12:55:06.449Z,6.94
2019-01-19T13:00:18.083Z,7.32
2019-01-19T13:05:30.961Z,7.32
2019-01-19T13:10:44.076Z,8.43
2019-01-19T13:16:31.980Z,7.95
2019-01-19T13:22:05.536Z,7.45
2019-01-19T13:27:43.531Z,8.48
2019-01-19T13:33:22.395Z,7.73
2019-01-19T13:39:05.600Z,7.32
2019-01-19T13:44:49.089Z,6.07
2019-01-19T13:50:32.051Z,6.25
2019-01-19T13:56:05.795Z,6.86
2019-01-19T14:01:30.787Z,6.73
2019-01-19T14:07:17.186Z,6.29
2019-01-19T14:13:12.448Z,6.74
2019-01-19T14:19:07.746Z,6.54
2019-01-19T14:24:51.459Z,6.00
2019-01-19T14:30:18.694Z,5.40
2019-01-19T14:36:16.962Z,5.01
2019-01-19T14:42:10.376Z,5.09
2019-01-19T14:47:49.447Z,4.49
2019-01-19T14:53:24.451Z,4.25
2019-01-19T14:59:04.065Z,3.95
2019-01-19T15:04:45.318Z,3.75
2019-01-19T15:10:43.364Z,4.01
2019-01-19T15:16:31.333Z,3.50
2019-01-19T15:22:23.870Z,3.46
2019-01-19T15:27:41.186Z,3.47
2019-01-19T15:33:31.652Z,3.37
2019-01-19T15:39:02.317Z,3.28
2019-01-19T15:44:42.710Z,3.03
2019-01-19T15:50:16.356Z,2.77
2019-01-19T15:55:46.309Z,2.70
2019-01-19T16:01:34.083Z,2.51
2019-01-19T16:06:50.053Z,2.20
2019-01-19T16:12:15.115Z,2.11
2019-01-19T16:17:47.505Z,2.09
2019-01-19T16:23:30.712Z,1.91
2019-01-19T16:28:54.111Z,1.96
2019-01-19T16:34:56.659Z,1.81
2019-01-19T16:40:34.175Z,1.89
2019-01-19T16:46:02.704Z,1.92
2019-01-19T16:51:36.101Z,1.72
2019-01-19T16:57:27.166Z,1.60
2019-01-19T17:03:25.932Z,1.26
2019-01-19T17:08:57.447Z,1.35
2019-01-19T17:14:35.228Z,1.22
2019-01-19T17:20:12.368Z,1.30
2019-01-19T17:25:54.339Z,1.26
2019-01-19T17:31:32.620Z,1.08
2019-01-19T17:37:09.962Z,0.84
2019-01-19T17:42:58.056Z,1.00
2019-01-19T17:48:43.236Z,0.88
2019-01-19T17:54:39.375Z,0.84
2019-01-19T18:00:19.583Z,0.89
2019-01-19T18:06:03.942Z,0.72
2019-01-19T18:11:47.320Z,0.63
2019-01-19T18:17:32.272Z,0.60
2019-01-19T18:22:56.200Z,0.67
2019-01-19T18:28:31.719Z,0.52
2019-01-19T18:33:55.651Z,0.56
2019-01-19T18:39:26.164Z,0.51
2019-01-19T18:45:15.443Z,0.37
2019-01-19T18:51:04.367Z,0.50
2019-01-19T18:56:47.713Z,0.42
2019-01-19T19:02:33.282Z,0.37
2019-01-19T19:08:07.529Z,0.33
2019-01-19T19:13:29.763Z,0.48
2019-01-19T19:18:55.705Z,0.40
2019-01-19T19:24:48.007Z,0.39
2019-01-19T19:30:32.552Z,0.28
2019-01-19T19:36:07.363Z,0.10
2019-01-19T19:41:49.447Z,0.02
2019-01-19T19:47:22.147Z,0.05
2019-01-19T19:52:31.029Z,-0.09
2019-01-19T19:58:03.825Z,-0.10
2019-01-19T20:03:16.613Z,-0.23
2019-01-19T20:08:26.859Z,-0.30
2019-01-19T20:13:36.131Z,-0.19
2019-01-19T20:18:46.756Z,-0.21
2019-01-19T20:23:59.272Z,-0.29
2019-01-19T20:29:12.741Z,-0.39
2019-01-19T20:34:24.556Z,-0.44
2019-01-19T20:39:35.915Z,-0.58
2019-01-19T20:44:46.662Z,-0.64
2019-01-19T20:49:57.354Z,-0.69
2019-01-19T20:55:07.133Z,-0.74
2019-01-19T21:00:17.120Z,-0.69
2019-01-19T21:05:25.462Z,-0.76
2019-01-19T21:10:39.780Z,-0.84
2019-01-19T21:15:48.186Z,-0.94
2019-01-19T21:20:57.927Z,-0.91
2019-01-19T21:26:07.619Z,-0.91
2019-01-19T21:31:18.543Z,-0.92
2019-01-19T21:36:27.556Z,-0.89
2019-01-19T21:41:39.237Z,-0.95
2019-01-19T21:46:47.225Z,-0.87
2019-01-19T21:51:54.933Z,-0.90
2019-01-19T21:57:01.436Z,-0.99
2019-01-19T22:02:09.541Z,-0.99
2019-01-19T22:07:18.306Z,-1.01
2019-01-19T22:12:28.102Z,-1.02
2019-01-19T22:17:39.786Z,-1.02
2019-01-19T22:22:49.573Z,-1.03
2019-01-19T22:27:59.430Z,-1.04
2019-01-19T22:33:09.221Z,-1.02
2019-01-19T22:38:24.265Z,-1.17
2019-01-19T22:43:36.589Z,-1.18
2019-01-19T22:48:48.257Z,-1.27
2019-01-19T22:53:59.464Z,-1.23
2019-01-19T22:59:11.094Z,-1.33
2019-01-19T23:04:20.449Z,-1.31
2019-01-19T23:09:28.386Z,-1.31
2019-01-19T23:14:35.747Z,-1.33
2019-01-19T23:19:45.585Z,-1.50
2019-01-19T23:24:54.458Z,-1.48
2019-01-19T23:30:02.211Z,-1.59
2019-01-19T23:35:14.182Z,-1.58
2019-01-19T23:40:24.602Z,-1.57
2019-01-19T23:45:31.961Z,-1.57
2019-01-19T23:50:44.635Z,-1.69
2019-01-19T23:55:52.946Z,-1.76
